Time;durP1;ratioP1;P1;durP2;ratioP2;P2;SDS_P1;SDS_P2;PMS_P1;PMS_P2;Temp;Humidity;BMP_temperature;BMP_pressure;BME280_temperature;BME280_humidity;BME280_pressure;Samples;Min_cycle;Max_cycle;Signal;HPM_P1;HPM_P2
2021/01/30 00:00:37;;;;;;;4.60;1.90;;;8.80;73.30;9.30;98862.00;;;;5030182;28;20831;-82
2021/01/30 00:03:07;;;;;;;3.63;1.70;;;8.90;73.00;52.70;160688.00;;;;5031736;28;20470;-83
2021/01/30 00:05:35;;;;;;;5.20;1.90;;;8.90;73.00;9.40;98873.00;;;;5031884;28;20418;-82
2021/01/30 00:08:11;;;;;;;5.20;1.80;;;9.00;72.40;9.50;98867.00;;;;5031990;28;20430;-82
2021/01/30 00:10:39;;;;;;;4.40;2.10;;;9.00;72.20;9.50;98864.00;;;;5032243;28;20959;-83
2021/01/30 00:13:08;;;;;;;4.10;1.90;;;9.00;71.90;9.50;68365.00;;;;5030409;28;20446;-83
2021/01/30 00:15:36;;;;;;;3.30;2.00;;;9.00;71.60;9.50;98871.00;;;;5030978;28;20427;-83
2021/01/30 00:18:06;;;;;;;4.68;2.00;;;9.00;71.80;9.50;98881.00;;;;5036847;28;20411;-83
2021/01/30 00:23:17;;;;;;;2.80;1.77;;;9.00;71.10;9.60;98881.00;;;;5019715;28;20446;-82
2021/01/30 00:25:44;;;;;;;4.20;1.58;;;9.10;70.80;9.70;98870.00;;;;5026346;28;20459;-81
2021/01/30 00:28:12;;;;;;;4.90;1.80;;;9.10;70.20;9.60;98882.00;;;;5014042;28;20477;-81
2021/01/30 00:30:41;;;;;;;5.63;1.80;;;9.20;70.20;9.70;98876.00;;;;4996428;28;20511;-81
2021/01/30 00:33:09;;;;;;;3.55;1.80;;;9.10;70.10;9.70;98888.00;;;;4988794;28;20424;-82
2021/01/30 00:35:37;;;;;;;4.05;1.70;;;9.20;69.40;9.70;98881.00;;;;5014159;28;20488;-82
2021/01/30 00:38:05;;;;;;;4.88;1.90;;;9.20;69.70;9.80;98886.00;;;;5001233;28;20424;-82
2021/01/30 00:40:34;;;;;;;4.90;2.42;;;9.20;69.10;9.70;68419.00;;;;5003160;28;20434;-83
2021/01/30 00:43:04;;;;;;;3.50;2.00;;;9.20;68.70;9.70;98897.00;;;;5002469;28;20426;-83
2021/01/30 00:45:32;;;;;;;4.38;2.10;;;9.20;68.40;52.70;160855.00;;;;4996954;28;20438;-83
2021/01/30 00:48:00;;;;;;;5.38;2.30;;;9.20;68.40;9.70;98890.00;;;;4982974;28;20930;-83
2021/01/30 00:50:31;;;;;;;5.43;2.20;;;9.20;67.90;9.70;98889.00;;;;4983450;28;20438;-83
2021/01/30 00:53:00;;;;;;;5.20;2.28;;;9.20;67.90;9.70;98896.00;;;;4991526;28;20441;-83
2021/01/30 00:55:38;;;;;;;3.30;1.90;;;9.10;67.80;9.60;98852.00;;;;5001389;28;20457;-82
2021/01/30 00:58:07;;;;;;;6.28;2.10;;;9.10;67.80;9.50;98889.00;;;;4986576;28;20407;-83
2021/01/30 01:00:37;;;;;;;5.13;2.20;;;9.00;68.10;9.60;98893.00;;;;4982554;28;20425;-82
2021/01/30 01:03:12;;;;;;;4.20;2.40;;;9.00;68.60;9.60;98894.00;;;;4998107;28;20418;-82
2021/01/30 01:05:51;;;;;;;4.80;2.10;;;9.00;68.60;9.60;98889.00;;;;5003718;28;20450;-82
2021/01/30 01:08:19;;;;;;;5.95;2.38;;;9.10;67.80;9.60;98914.00;;;;5009819;28;20549;-83
2021/01/30 01:10:47;;;;;;;5.60;2.30;;;9.00;68.10;9.50;98906.00;;;;5009495;28;20425;-83
2021/01/30 01:13:14;;;;;;;5.35;2.50;;;9.00;68.30;9.50;98893.00;;;;5002245;28;20431;-83
2021/01/30 01:15:43;;;;;;;4.72;2.30;;;8.90;69.00;9.40;98910.00;;;;4989488;28;20419;-83
2021/01/30 01:18:11;;;;;;;3.85;2.22;;;8.90;69.00;9.30;98917.00;;;;4986393;28;20506;-83
2021/01/30 01:20:39;;;;;;;5.57;2.40;;;8.90;69.00;9.40;98915.00;;;;4999805;28;20533;-83
2021/01/30 01:23:07;;;;;;;5.22;1.90;;;8.80;69.00;9.30;98908.00;;;;5001617;28;20444;-82
2021/01/30 01:25:34;;;;;;;5.43;2.60;;;8.80;69.00;9.40;98914.00;;;;4982727;28;20509;-83
2021/01/30 01:28:02;;;;;;;4.20;2.55;;;8.80;69.00;9.40;98926.00;;;;4993055;28;20442;-83
2021/01/30 01:30:30;;;;;;;5.65;2.35;;;8.80;68.90;9.50;98940.00;;;;5002040;28;20440;-82
2021/01/30 01:33:00;;;;;;;5.15;2.30;;;8.90;68.00;217.30;160777.00;;;;4991288;28;20424;-83
2021/01/30 01:35:31;;;;;;;5.00;2.20;;;8.90;67.70;9.60;98932.00;;;;5007121;28;20514;-83
2021/01/30 01:38:00;;;;;;;3.35;2.13;;;9.10;68.40;9.60;98940.00;;;;4994313;28;20412;-84
2021/01/30 01:40:31;;;;;;;3.63;2.28;;;9.00;67.80;9.60;98946.00;;;;4991043;28;20436;-82
2021/01/30 01:43:03;;;;;;;7.05;2.75;;;8.90;67.70;9.60;68390.00;;;;5010351;28;20425;-84
2021/01/30 01:45:31;;;;;;;5.70;2.50;;;8.90;67.60;9.60;98930.00;;;;5003210;28;20454;-83
2021/01/30 01:48:05;;;;;;;4.65;2.10;;;9.00;67.50;9.60;98936.00;;;;4991707;28;20426;-83
2021/01/30 01:50:39;;;;;;;3.33;2.00;;;8.90;67.30;9.60;98932.00;;;;5002277;28;20481;-83
2021/01/30 01:53:12;;;;;;;5.18;2.22;;;8.90;67.20;9.60;98928.00;;;;5011474;28;20427;-84
2021/01/30 01:55:44;;;;;;;4.77;2.37;;;9.00;67.40;9.60;98933.00;;;;4987435;28;21153;-84
2021/01/30 01:58:14;;;;;;;4.40;2.00;;;9.00;66.90;9.60;98946.00;;;;4997161;28;20906;-84
2021/01/30 02:00:45;;;;;;;5.57;2.15;;;9.00;67.10;9.60;98930.00;;;;4979970;28;20438;-83
2021/01/30 02:03:17;;;;;;;4.85;2.20;;;8.90;67.20;9.60;98921.00;;;;4989280;28;20425;-84
2021/01/30 02:05:45;;;;;;;5.50;2.30;;;9.00;67.20;9.60;98937.00;;;;4973242;28;20429;-84
2021/01/30 02:08:20;;;;;;;3.70;2.10;;;8.90;67.30;9.60;98927.00;;;;4987075;28;20428;-84
2021/01/30 02:10:51;;;;;;;6.45;2.40;;;8.90;67.70;9.70;98929.00;;;;5000894;28;20485;-84
2021/01/30 02:13:24;;;;;;;6.75;2.50;;;9.00;67.80;9.70;98937.00;;;;5007147;28;20510;-84
2021/01/30 02:16:00;;;;;;;5.88;2.47;;;8.90;67.70;9.70;98939.00;;;;5009073;28;20426;-84
2021/01/30 02:18:42;;;;;;;5.43;2.50;;;9.00;67.90;9.70;98928.00;;;;5020560;28;20426;-84
2021/01/30 02:22:04;;;;;;;4.82;2.20;;;9.00;68.50;9.60;98927.00;;;;5012526;28;20452;-84
2021/01/30 02:25:17;;;;;;;4.90;2.00;;;9.00;67.80;9.60;98922.00;;;;5017020;28;20430;-84
2021/01/30 02:28:09;;;;;;;3.05;1.80;;;8.90;68.00;9.60;98925.00;;;;4955173;28;20429;-84
2021/01/30 02:31:21;;;;;;;4.07;1.83;;;8.80;69.00;9.60;98907.00;;;;5014035;28;20430;-83
2021/01/30 02:34:30;;;;;;;3.40;1.60;;;8.90;68.30;9.50;98929.00;;;;5006654;28;20513;-84
2021/01/30 02:37:03;;;;;;;2.83;1.70;;;8.80;69.00;9.60;98916.00;;;;5009462;28;20492;-84
2021/01/30 02:39:36;;;;;;;3.00;1.60;;;8.80;69.30;9.50;98925.00;;;;5008861;28;20480;-86
2021/01/30 02:42:12;;;;;;;4.72;1.63;;;8.70;69.30;9.40;98901.00;;;;4994319;28;20519;-86
2021/01/30 02:44:43;;;;;;;3.50;1.60;;;8.70;69.40;9.40;98908.00;;;;4985408;28;20465;-85
2021/01/30 02:47:13;;;;;;;3.05;1.60;;;8.70;69.60;9.40;98921.00;;;;5000167;28;20417;-85
2021/01/30 02:49:47;;;;;;;4.07;1.57;;;8.70;69.60;9.40;98919.00;;;;5000151;28;20489;-85
2021/01/30 02:52:19;;;;;;;3.85;1.60;;;8.70;69.50;9.40;98918.00;;;;4987320;28;20543;-86
2021/01/30 02:54:47;;;;;;;3.00;1.70;;;8.60;69.80;9.40;98926.00;;;;5005028;28;20477;-87
2021/01/30 02:57:17;;;;;;;5.83;1.90;;;8.70;70.00;9.40;98912.00;;;;5018033;28;20534;-87
2021/01/30 02:59:48;;;;;;;4.68;1.80;;;8.70;69.70;9.40;98925.00;;;;5003677;28;20414;-87
2021/01/30 03:02:18;;;;;;;3.10;1.50;;;8.70;69.70;9.30;98934.00;;;;5011549;28;20763;-86
2021/01/30 03:04:47;;;;;;;3.90;1.70;;;8.60;70.10;9.30;98925.00;;;;4991665;28;20421;-86
2021/01/30 03:07:54;;;;;;;4.23;1.70;;;8.60;70.80;9.40;98917.00;;;;4981993;28;20476;-86
2021/01/30 03:10:29;;;;;;;4.50;1.60;;;8.60;70.80;9.40;98931.00;;;;4991019;28;20420;-86
2021/01/30 03:13:09;;;;;;;5.05;1.58;;;8.60;70.60;9.40;98920.00;;;;4999946;28;20435;-86
2021/01/30 03:15:42;;;;;;;3.47;1.60;;;8.60;71.00;9.40;98918.00;;;;4990146;28;20415;-87
2021/01/30 03:18:12;;;;;;;3.47;1.65;;;8.60;71.10;9.40;98908.00;;;;5023091;28;20425;-87
2021/01/30 03:20:43;;;;;;;3.40;1.60;;;8.60;71.30;9.40;98928.00;;;;5022963;28;20428;-86
2021/01/30 03:23:13;;;;;;;3.93;1.90;;;8.60;71.20;9.40;98929.00;;;;5010555;28;20426;-86
2021/01/30 03:25:43;;;;;;;5.65;1.73;;;8.60;71.20;9.30;98934.00;;;;4999255;28;20427;-86
2021/01/30 03:28:12;;;;;;;4.65;1.60;;;8.60;71.00;9.30;98924.00;;;;5013846;28;20422;-86
2021/01/30 03:30:40;;;;;;;4.65;1.98;;;8.50;71.20;9.30;98926.00;;;;4996205;28;20425;-86
2021/01/30 03:33:09;;;;;;;5.07;1.55;;;8.50;71.70;9.30;98927.00;;;;5018392;28;20426;-85
2021/01/30 03:35:36;;;;;;;3.13;1.80;;;8.50;71.50;9.30;98938.00;;;;4998295;28;20443;-86
2021/01/30 03:38:05;;;;;;;3.67;1.70;;;8.50;71.90;9.30;98929.00;;;;5001023;28;20432;-87
2021/01/30 03:40:33;;;;;;;3.55;1.90;;;8.50;72.20;9.40;98943.00;;;;4994510;28;20496;-87
2021/01/30 03:43:04;;;;;;;5.18;1.80;;;8.50;72.70;9.40;98940.00;;;;4989971;28;20511;-84
2021/01/30 03:45:32;;;;;;;3.97;1.80;;;8.50;72.50;9.40;98930.00;;;;4997112;28;20510;-86
2021/01/30 03:48:01;;;;;;;3.10;1.60;;;8.50;72.40;9.30;98925.00;;;;4995880;28;20524;-87
2021/01/30 03:50:29;;;;;;;6.40;1.60;;;8.50;72.70;9.30;98939.00;;;;4997977;28;20529;-85
2021/01/30 03:52:58;;;;;;;3.72;1.80;;;8.50;74.00;217.30;160684.00;;;;4996096;28;20436;-85
2021/01/30 03:55:27;;;;;;;4.47;1.67;;;8.40;74.20;9.30;98936.00;;;;4977811;28;20441;-86
2021/01/30 03:57:55;;;;;;;3.78;1.70;;;8.40;75.60;9.20;98910.00;;;;4995051;28;20509;-84
2021/01/30 04:00:25;;;;;;;4.03;1.88;;;8.30;77.60;8.90;98940.00;;;;4997455;28;20445;-84
2021/01/30 04:02:54;;;;;;;5.47;2.10;;;8.20;79.30;8.60;98923.00;;;;4980828;28;20630;-84
2021/01/30 04:05:24;;;;;;;4.75;2.05;;;8.00;79.90;8.50;98917.00;;;;5003826;28;20432;-84
2021/01/30 04:07:55;;;;;;;5.55;2.03;;;7.90;81.00;8.50;98899.00;;;;4998388;28;20475;-84
2021/01/30 04:10:27;;;;;;;5.00;2.00;;;7.80;82.20;8.40;98905.00;;;;4995731;28;20535;-84
2021/01/30 04:12:57;;;;;;;4.57;1.67;;;7.80;82.70;8.30;98907.00;;;;4996983;28;20454;-84
2021/01/30 04:15:29;;;;;;;5.93;1.90;;;7.80;82.90;8.30;98901.00;;;;4988272;28;20513;-83
2021/01/30 04:17:57;;;;;;;4.43;1.70;;;7.70;83.40;8.20;98902.00;;;;4988356;28;20430;-84
2021/01/30 04:20:26;;;;;;;4.28;1.80;;;7.70;83.60;8.20;98914.00;;;;4979760;28;20430;-84
2021/01/30 04:22:54;;;;;;;4.22;1.50;;;7.60;83.90;8.30;98920.00;;;;4988883;28;20433;-84
2021/01/30 04:25:25;;;;;;;4.53;2.10;;;7.60;84.80;8.20;98911.00;;;;4995462;28;20488;-83
2021/01/30 04:27:56;;;;;;;7.13;2.10;;;7.70;84.40;8.30;98915.00;;;;4995327;28;20437;-84
2021/01/30 04:30:26;;;;;;;5.03;1.80;;;7.70;84.50;8.40;98913.00;;;;4987564;28;20466;-83
2021/01/30 04:32:55;;;;;;;3.92;1.80;;;7.70;84.40;8.40;98898.00;;;;4986981;28;20430;-84
2021/01/30 04:35:27;;;;;;;4.53;1.80;;;7.70;84.30;8.50;98898.00;;;;4995042;28;20886;-84
2021/01/30 04:37:55;;;;;;;4.93;1.80;;;7.70;84.30;8.50;98898.00;;;;4977150;28;20521;-84
2021/01/30 04:40:30;;;;;;;3.80;1.80;;;7.80;83.80;8.50;98896.00;;;;4996977;28;20432;-83
2021/01/30 04:43:14;;;;;;;5.72;1.73;;;7.80;83.80;8.50;98897.00;;;;4977609;28;20426;-84
2021/01/30 04:45:57;;;;;;;4.07;1.55;;;7.80;83.50;8.60;98892.00;;;;4987477;28;20431;-84
2021/01/30 04:48:42;;;;;;;3.00;1.48;;;7.90;83.70;8.60;98892.00;;;;4975984;28;20433;-84
2021/01/30 04:51:18;;;;;;;3.60;1.60;;;7.90;83.30;8.70;98887.00;;;;4988732;28;20426;-83
2021/01/30 04:54:29;;;;;;;3.45;1.80;;;7.90;83.20;8.80;98889.00;;;;5005949;28;20414;-84
2021/01/30 04:57:12;;;;;;;3.70;1.70;;;7.90;83.20;8.80;98878.00;;;;4978796;28;20423;-83
2021/01/30 05:00:01;;;;;;;2.42;1.20;;;8.00;83.20;8.90;98880.00;;;;4986856;28;20422;-83
2021/01/30 05:02:46;;;;;;;7.40;1.77;;;8.00;83.30;8.90;98875.00;;;;4977397;28;20460;-84
2021/01/30 05:05:17;;;;;;;3.10;1.40;;;8.00;83.20;8.90;98887.00;;;;4978657;28;20418;-84
2021/01/30 05:07:48;;;;;;;2.90;1.30;;;8.10;82.80;8.90;98889.00;;;;4995157;28;20513;-84
2021/01/30 05:10:22;;;;;;;4.00;1.40;;;8.10;82.90;8.90;98870.00;;;;4978961;28;20434;-83
2021/01/30 05:12:55;;;;;;;3.58;1.60;;;8.10;82.90;9.00;98890.00;;;;5014170;28;20414;-84
2021/01/30 05:15:30;;;;;;;2.60;1.33;;;8.10;83.00;9.00;98881.00;;;;5010869;28;20505;-84
2021/01/30 05:18:02;;;;;;;3.63;1.10;;;8.20;84.00;8.90;98880.00;;;;5010029;28;20501;-83
2021/01/30 05:20:37;;;;;;;2.80;1.40;;;8.10;83.00;9.00;98884.00;;;;5014604;28;20839;-83
2021/01/30 05:23:08;;;;;;;2.55;1.23;;;8.10;83.50;9.00;98874.00;;;;4996982;28;20486;-83
2021/01/30 05:25:35;;;;;;;4.50;1.30;;;8.10;83.40;9.00;98872.00;;;;4973371;28;20426;-82
2021/01/30 05:28:22;;;;;;;2.28;1.08;;;8.10;83.50;9.00;68253.00;;;;4995980;28;20427;-82
2021/01/30 05:31:06;;;;;;;2.30;1.23;;;8.10;83.50;9.10;98875.00;;;;4989487;28;20428;-83
2021/01/30 05:33:59;;;;;;;4.03;1.30;;;8.10;84.00;9.10;98884.00;;;;4980426;28;20485;-83
2021/01/30 05:36:35;;;;;;;2.92;1.08;;;8.10;84.00;9.10;98871.00;;;;4990394;28;20420;-83
2021/01/30 05:39:17;;;;;;;2.53;1.15;;;8.20;84.00;9.10;98873.00;;;;5009230;28;20424;-82
2021/01/30 05:41:55;;;;;;;3.15;1.20;;;8.20;83.90;9.10;98875.00;;;;5009321;28;20447;-83
2021/01/30 05:44:33;;;;;;;2.30;1.05;;;8.10;83.80;9.00;98858.00;;;;5002863;28;20439;-83
2021/01/30 05:47:02;;;;;;;2.30;1.17;;;8.20;83.80;9.10;98877.00;;;;5003745;28;20462;-83
2021/01/30 05:49:34;;;;;;;2.70;1.10;;;8.20;84.30;9.10;98878.00;;;;5003396;28;20414;-83
2021/01/30 05:52:08;;;;;;;2.95;1.17;;;8.20;84.40;9.10;98890.00;;;;5010539;28;20456;-81
2021/01/30 05:54:35;;;;;;;2.65;1.33;;;8.20;84.40;9.10;98876.00;;;;4997163;28;20509;-83
2021/01/30 05:57:03;;;;;;;2.13;1.00;;;8.20;84.70;9.00;98882.00;;;;4994168;28;20504;-83
2021/01/30 05:59:34;;;;;;;2.28;1.10;;;8.10;85.30;9.00;98882.00;;;;5003738;28;20792;-83
2021/01/30 06:02:16;;;;;;;2.10;1.20;;;8.10;86.10;9.00;98885.00;;;;5002945;28;20434;-84
2021/01/30 06:04:44;;;;;;;2.90;1.20;;;8.10;86.10;9.00;98880.00;;;;4984801;28;20527;-84
2021/01/30 06:07:31;;;;;;;2.60;1.00;;;8.00;87.60;8.80;98875.00;;;;4998977;28;20839;-85
2021/01/30 06:09:59;;;;;;;2.83;1.20;;;7.90;89.30;8.70;98883.00;;;;4992561;28;20465;-83
2021/01/30 06:12:30;;;;;;;3.22;1.40;;;7.80;90.20;8.60;98889.00;;;;4984661;28;20454;-84
2021/01/30 06:15:11;;;;;;;2.20;1.20;;;7.70;90.50;8.60;98883.00;;;;4992556;28;21237;-84
2021/01/30 06:17:39;;;;;;;2.90;1.10;;;7.70;90.80;8.70;98879.00;;;;4991525;28;20441;-84
2021/01/30 06:20:19;;;;;;;2.20;1.10;;;7.70;91.00;8.70;98891.00;;;;4982504;28;20464;-84
2021/01/30 06:23:07;;;;;;;2.97;1.30;;;7.80;90.80;8.60;98857.00;;;;4995794;28;20434;-84
2021/01/30 06:25:38;;;;;;;2.60;1.50;;;7.70;90.80;8.60;98884.00;;;;5026819;28;20496;-84
2021/01/30 06:28:09;;;;;;;2.80;1.40;;;7.70;91.20;8.60;98899.00;;;;5014089;28;20513;-85
2021/01/30 06:30:39;;;;;;;3.80;1.55;;;7.70;91.50;8.60;98892.00;;;;5006670;28;20486;-85
2021/01/30 06:33:26;;;;;;;3.30;1.80;;;7.60;91.90;8.40;98882.00;;;;4987354;28;21003;-85
2021/01/30 06:35:58;;;;;;;3.40;1.60;;;7.60;92.10;8.50;98882.00;;;;5002408;28;21359;-85
2021/01/30 06:38:34;;;;;;;4.68;1.92;;;7.60;92.30;8.40;98885.00;;;;4986393;28;20430;-85
2021/01/30 06:41:05;;;;;;;3.25;1.90;;;7.70;92.30;8.30;98528.00;;;;5004541;28;20428;-84
2021/01/30 06:43:36;;;;;;;2.92;1.70;;;7.50;92.40;8.30;98879.00;;;;5000773;28;20420;-84
2021/01/30 06:46:11;;;;;;;4.88;2.25;;;7.50;92.40;8.30;98884.00;;;;5011159;28;20426;-84
2021/01/30 06:48:44;;;;;;;4.43;2.00;;;7.50;92.60;8.40;98870.00;;;;5000608;28;20426;-85
2021/01/30 06:51:29;;;;;;;4.15;1.83;;;7.50;92.80;8.40;98883.00;;;;5001591;28;20441;-84
2021/01/30 06:54:17;;;;;;;2.93;1.50;;;7.50;92.80;8.40;98875.00;;;;5026210;28;20439;-85
2021/01/30 06:56:45;;;;;;;4.53;1.75;;;7.50;92.70;8.40;98867.00;;;;5021248;28;20420;-85
2021/01/30 06:59:19;;;;;;;2.92;2.00;;;7.50;92.90;8.40;98878.00;;;;5008171;28;20420;-84
2021/01/30 07:01:49;;;;;;;3.63;2.28;;;7.50;92.90;8.30;98884.00;;;;5020640;28;20503;-85
2021/01/30 07:04:51;;;;;;;4.78;2.70;;;7.40;93.00;8.40;98877.00;;;;4994450;28;20884;-86
2021/01/30 07:07:24;;;;;;;3.20;2.90;;;7.40;93.10;8.40;98882.00;;;;5004959;28;20986;-86
2021/01/30 07:10:09;;;;;;;6.03;4.03;;;7.50;93.20;8.50;68149.00;;;;4997906;28;20405;-86
2021/01/30 07:12:51;;;;;;;5.93;3.60;;;7.50;93.30;8.60;98891.00;;;;5001534;28;20430;-87
2021/01/30 07:15:25;;;;;;;7.10;3.95;;;7.50;93.40;8.60;98878.00;;;;5020636;28;20430;-86
2021/01/30 07:18:10;;;;;;;6.20;3.90;;;7.50;93.40;8.60;98874.00;;;;5004479;28;20425;-86
2021/01/30 07:21:16;;;;;;;6.67;3.90;;;7.60;93.50;8.70;98884.00;;;;5017759;28;20485;-86
2021/01/30 07:23:53;;;;;;;7.35;4.15;;;7.60;93.40;8.50;98879.00;;;;5002045;28;20481;-86
2021/01/30 07:26:28;;;;;;;6.10;4.30;;;7.70;93.30;8.50;98902.00;;;;4989162;28;20926;-86
2021/01/30 07:29:02;;;;;;;7.78;4.75;;;7.60;93.30;8.40;98895.00;;;;4998921;28;20430;-86
2021/01/30 07:31:33;;;;;;;8.10;4.43;;;7.60;93.30;8.50;98881.00;;;;4999417;28;20477;-86
2021/01/30 07:34:12;;;;;;;9.57;5.00;;;7.60;93.30;8.70;98903.00;;;;4990022;28;20426;-87
2021/01/30 07:36:45;;;;;;;9.32;6.32;;;7.60;93.50;217.30;160392.00;;;;4974178;28;20437;-86
2021/01/30 07:39:30;;;;;;;10.07;5.80;;;7.60;93.50;8.50;98912.00;;;;4983259;28;20908;-86
2021/01/30 07:42:06;;;;;;;11.10;7.40;;;7.60;93.50;8.70;98907.00;;;;4999396;28;20457;-87
2021/01/30 07:44:55;;;;;;;9.63;6.90;;;7.60;93.70;8.70;98918.00;;;;4986464;28;20456;-87
2021/01/30 07:47:35;;;;;;;8.90;6.78;;;7.60;93.90;8.60;98916.00;;;;4990573;28;20425;-85
2021/01/30 07:50:11;;;;;;;9.80;7.10;;;7.50;93.60;8.50;98895.00;;;;4998137;28;21072;-85
2021/01/30 07:52:55;;;;;;;8.60;7.68;;;7.40;93.50;8.40;98913.00;;;;5001248;28;21004;-83
2021/01/30 07:55:23;;;;;;;4.25;3.78;;;7.30;93.60;8.40;98914.00;;;;4998059;28;20523;-83
2021/01/30 07:58:23;;;;;;;4.40;3.40;;;7.30;93.60;8.50;98923.00;;;;4981371;28;20517;-85
2021/01/30 08:01:12;;;;;;;5.80;3.93;;;7.30;93.50;8.40;98911.00;;;;4983582;28;20461;-84
2021/01/30 08:04:43;;;;;;;6.18;4.50;;;7.30;93.40;8.40;98919.00;;;;5001486;28;20792;-84
2021/01/30 08:07:20;;;;;;;4.10;3.30;;;7.20;93.40;7.50;98926.00;;;;4985822;28;20461;-82
2021/01/30 08:10:03;;;;;;;5.45;4.80;;;6.60;90.00;7.10;67828.00;;;;4993714;28;20419;-83
2021/01/30 08:12:48;;;;;;;6.30;5.18;;;6.10;90.60;6.60;98908.00;;;;5001786;28;20438;-82
2021/01/30 08:15:38;;;;;;;5.75;5.15;;;5.60;89.60;6.50;98912.00;;;;5001514;28;20417;-83
2021/01/30 08:18:17;;;;;;;6.10;5.50;;;5.40;91.00;6.40;67663.00;;;;4997058;28;20417;-82
2021/01/30 08:20:54;;;;;;;7.10;5.95;;;5.20;90.70;6.30;98920.00;;;;5000841;28;20422;-82
2021/01/30 08:23:42;;;;;;;7.30;6.20;;;5.10;91.10;6.30;98910.00;;;;5016935;28;20446;-81
2021/01/30 08:26:17;;;;;;;7.43;6.63;;;5.00;91.10;6.30;98921.00;;;;5016484;28;20449;-82
2021/01/30 08:28:56;;;;;;;7.25;6.13;;;5.00;91.30;217.30;159331.00;;;;5011459;28;20522;-82
2021/01/30 08:31:36;;;;;;;6.28;5.30;;;4.90;90.80;5.80;98889.00;;;;5003859;28;20461;-81
2021/01/30 08:34:09;;;;;;;7.25;6.40;;;4.70;89.70;5.80;98888.00;;;;4987329;28;20535;-83
2021/01/30 08:36:40;;;;;;;6.60;5.63;;;4.60;90.40;5.60;98933.00;;;;4994760;28;20420;-82
2021/01/30 08:39:21;;;;;;;8.60;7.27;;;4.40;90.30;5.60;67502.00;;;;4995947;28;20464;-83
2021/01/30 08:41:59;;;;;;;7.88;6.80;;;4.30;90.10;5.30;98963.00;;;;4990987;28;20453;-82
2021/01/30 08:44:53;;;;;;;10.30;8.40;;;4.10;88.50;5.40;98965.00;;;;4993087;28;20431;-82
2021/01/30 08:47:25;;;;;;;10.30;8.90;;;4.00;89.60;5.50;98969.00;;;;4982977;28;20455;-83
2021/01/30 08:50:05;;;;;;;9.35;7.90;;;4.00;90.30;5.10;98974.00;;;;5003474;28;20446;-81
2021/01/30 08:52:44;;;;;;;12.88;10.73;;;3.90;87.50;52.70;158832.00;;;;4995465;28;20482;-81
2021/01/30 08:55:53;;;;;;;13.02;10.80;;;3.80;88.70;5.00;98981.00;;;;5003482;28;20440;-82
2021/01/30 08:58:51;;;;;;;13.30;11.30;;;3.70;88.00;4.90;98962.00;;;;4982560;28;20436;-81
2021/01/30 09:01:48;;;;;;;13.70;12.20;;;3.60;87.20;4.80;98986.00;;;;4992115;28;20441;-81
2021/01/30 09:05:08;;;;;;;16.30;14.20;;;3.40;87.80;4.70;98990.00;;;;4983228;28;20498;-83
2021/01/30 09:07:42;;;;;;;16.75;14.40;;;3.40;87.90;217.30;158620.00;;;;4991825;28;20435;-83
2021/01/30 09:10:34;;;;;;;18.00;14.43;;;3.50;87.70;217.30;158671.00;;;;4992295;28;20433;-83
2021/01/30 09:13:11;;;;;;;17.65;15.13;;;3.30;87.90;4.50;99004.00;;;;5000372;28;20432;-82
2021/01/30 09:16:04;;;;;;;19.65;15.15;;;3.20;87.30;4.50;98982.00;;;;4989521;28;20883;-82
2021/01/30 09:18:52;;;;;;;18.75;15.52;;;3.20;87.60;4.50;98993.00;;;;4998249;28;20424;-84
2021/01/30 09:21:45;;;;;;;19.40;15.80;;;3.20;86.40;4.20;98992.00;;;;4992090;28;20430;-83
2021/01/30 09:24:41;;;;;;;20.63;16.42;;;3.10;86.70;4.20;98990.00;;;;4986958;28;20427;-83
2021/01/30 09:27:14;;;;;;;18.30;15.60;;;3.00;87.20;4.10;98984.00;;;;4998339;28;20517;-83
2021/01/30 09:29:45;;;;;;;17.83;15.40;;;2.90;87.10;4.10;98975.00;;;;4996172;28;20425;-84
2021/01/30 09:32:16;;;;;;;17.88;15.13;;;2.90;87.00;4.10;98977.00;;;;5002009;28;20428;-83
2021/01/30 09:34:50;;;;;;;18.70;15.70;;;2.80;87.20;3.90;98981.00;;;;4994474;28;21073;-83
2021/01/30 09:37:36;;;;;;;18.47;15.90;;;2.80;86.90;3.80;99006.00;;;;4997177;28;20503;-83
2021/01/30 09:40:08;;;;;;;21.35;17.65;;;2.70;87.80;3.90;99000.00;;;;5000929;28;20429;-82
2021/01/30 09:42:35;;;;;;;19.30;15.65;;;2.70;88.30;3.80;99010.00;;;;5002501;28;20479;-83
2021/01/30 09:45:10;;;;;;;21.05;17.33;;;2.70;88.00;3.80;99000.00;;;;4983335;28;20496;-83
2021/01/30 09:47:47;;;;;;;21.25;17.98;;;2.60;88.10;3.50;98986.00;;;;5002887;28;20450;-82
2021/01/30 09:50:22;;;;;;;18.17;15.13;;;2.50;87.30;217.30;158154.00;;;;5004560;28;20479;-83
2021/01/30 09:52:55;;;;;;;20.23;17.88;;;2.50;87.70;3.80;99013.00;;;;5010080;28;20522;-82
2021/01/30 09:55:24;;;;;;;21.88;18.60;;;2.60;88.40;3.90;99000.00;;;;5020203;28;20424;-83
2021/01/30 09:57:54;;;;;;;19.10;16.70;;;2.60;87.80;3.70;99009.00;;;;5017697;28;20455;-83
2021/01/30 10:00:33;;;;;;;20.35;18.10;;;2.60;87.00;3.90;99016.00;;;;5007386;28;20467;-83
2021/01/30 10:03:16;;;;;;;20.75;18.63;;;2.60;87.80;4.00;99011.00;;;;4994738;28;20428;-82
2021/01/30 10:05:43;;;;;;;20.00;17.90;;;2.80;87.50;3.90;99043.00;;;;5007062;28;20440;-83
2021/01/30 10:08:22;;;;;;;20.92;18.83;;;2.70;86.90;3.80;99022.00;;;;4994656;28;20423;-82
2021/01/30 10:10:49;;;;;;;20.23;18.15;;;2.70;86.20;52.70;158328.00;;;;5002848;28;20463;-81
2021/01/30 10:13:19;;;;;;;17.05;15.25;;;2.60;86.90;3.70;67082.00;;;;4997434;28;20427;-83
2021/01/30 10:15:55;;;;;;;17.85;15.95;;;2.60;87.00;3.60;99038.00;;;;5003534;28;20423;-82
2021/01/30 10:18:27;;;;;;;20.30;18.10;;;2.50;86.60;3.50;99017.00;;;;4997006;28;20511;-81
2021/01/30 10:21:00;;;;;;;19.90;17.90;;;2.50;86.20;3.60;99016.00;;;;5007718;28;20436;-81
2021/01/30 10:23:31;;;;;;;22.38;20.08;;;2.50;87.20;3.60;99018.00;;;;5004912;28;20436;-80
2021/01/30 10:26:12;;;;;;;20.60;18.50;;;2.50;87.30;3.50;99032.00;;;;5017520;28;20444;-81
2021/01/30 10:28:47;;;;;;;21.40;19.20;;;2.40;86.70;3.60;99015.00;;;;5007137;28;20424;-81
2021/01/30 10:31:22;;;;;;;21.35;19.15;;;2.50;86.30;3.60;99012.00;;;;5014881;28;20477;-82
2021/01/30 10:33:56;;;;;;;23.17;20.88;;;2.50;86.20;3.60;99015.00;;;;5013352;28;20988;-80
2021/01/30 10:36:25;;;;;;;20.73;18.63;;;2.40;86.40;3.60;99019.00;;;;5019746;28;20440;-81
2021/01/30 10:38:54;;;;;;;20.80;18.70;;;2.40;86.90;3.80;99016.00;;;;5009012;28;20424;-81
2021/01/30 10:41:27;;;;;;;21.73;19.55;;;2.50;87.00;3.90;99028.00;;;;5006255;28;20479;-82
2021/01/30 10:44:01;;;;;;;21.50;19.40;;;2.50;87.50;4.00;99021.00;;;;4989134;28;20529;-82
2021/01/30 10:46:40;;;;;;;21.20;19.10;;;2.60;87.10;4.10;99033.00;;;;4987773;28;20502;-82
2021/01/30 10:49:21;;;;;;;21.85;19.65;;;2.60;86.90;217.30;158423.00;;;;4995493;28;20829;-82
2021/01/30 10:51:57;;;;;;;19.90;18.00;;;2.70;86.90;4.20;99020.00;;;;4986350;28;20440;-80
2021/01/30 10:54:28;;;;;;;21.30;19.20;;;2.60;86.20;4.30;99024.00;;;;5004084;28;20991;-82
2021/01/30 10:57:11;;;;;;;19.23;17.38;;;2.80;86.60;217.30;158514.00;;;;5002605;28;20502;-81
2021/01/30 10:59:51;;;;;;;18.90;17.10;;;2.90;85.90;217.30;158463.00;;;;5005098;28;20430;-80
2021/01/30 11:02:40;;;;;;;21.20;19.20;;;2.70;85.10;4.10;99019.00;;;;4999648;28;20527;-80
2021/01/30 11:05:28;;;;;;;18.77;16.40;;;2.70;85.60;3.70;99010.00;;;;5000170;28;20435;-81
2021/01/30 11:08:01;;;;;;;21.77;19.58;;;2.50;85.90;3.80;67102.00;;;;4999102;28;20487;-80
2021/01/30 11:10:47;;;;;;;21.92;19.63;;;2.60;86.80;4.00;99000.00;;;;4988201;28;20435;-80
2021/01/30 11:13:26;;;;;;;22.27;19.97;;;2.60;87.30;4.10;99005.00;;;;4997297;28;20428;-82
2021/01/30 11:16:11;;;;;;;23.58;21.25;;;2.70;87.90;4.30;99006.00;;;;5001877;28;20434;-81
2021/01/30 11:18:42;;;;;;;22.95;20.55;;;2.80;87.70;4.50;67250.00;;;;5006734;28;20476;-82
2021/01/30 11:21:13;;;;;;;21.48;19.48;;;2.90;87.40;4.50;67250.00;;;;5004658;28;20825;-81
2021/01/30 11:23:47;;;;;;;20.45;18.55;;;3.00;87.30;4.60;99014.00;;;;5004272;28;20438;-81
2021/01/30 11:26:21;;;;;;;21.02;19.00;;;3.10;87.00;217.30;158705.00;;;;5000951;28;20950;-81
2021/01/30 11:28:49;;;;;;;20.60;18.67;;;3.10;87.00;4.70;98996.00;;;;4992915;28;20432;-81
2021/01/30 11:31:18;;;;;;;20.63;18.73;;;3.10;86.70;4.80;98991.00;;;;4987507;28;20452;-81
2021/01/30 11:33:46;;;;;;;20.80;18.80;;;3.20;86.30;52.70;158721.00;;;;4987201;28;20477;-82
2021/01/30 11:36:16;;;;;;;20.60;18.60;;;3.30;86.30;5.10;67357.00;;;;5004208;28;20442;-83
2021/01/30 11:38:54;;;;;;;20.67;18.70;;;3.50;85.60;217.30;158929.00;;;;4999446;28;20494;-81
2021/01/30 11:41:21;;;;;;;20.00;18.10;;;3.60;85.40;5.30;67441.00;;;;5004468;28;20431;-81
2021/01/30 11:43:49;;;;;;;19.58;17.75;;;3.60;84.70;5.40;98978.00;;;;4978887;28;20482;-80
2021/01/30 11:46:17;;;;;;;19.23;17.43;;;3.70;84.20;5.40;98968.00;;;;5002518;28;20459;-82